Time;durP1;ratioP1;P1;durP2;ratioP2;P2;SDS_P1;SDS_P2;PMS_P1;PMS_P2;Temp;Humidity;BMP_temperature;BMP_pressure;BME280_temperature;BME280_humidity;BME280_pressure;Samples;Min_cycle;Max_cycle;Signal;HPM_P1;HPM_P2
2022/09/16 00:00:28;;;;;;;6.40;4.35;;;11.50;99.90;;;;;;4993599;28;20057;-70
2022/09/16 00:02:56;;;;;;;9.52;4.55;;;11.50;99.90;;;;;;4994766;28;20033;-71
2022/09/16 00:05:22;;;;;;;8.85;4.45;;;11.40;99.90;;;;;;4996511;28;20046;-70
2022/09/16 00:07:49;;;;;;;6.85;4.65;;;11.50;99.90;;;;;;5013934;28;20579;-70
2022/09/16 00:10:16;;;;;;;5.88;4.50;;;11.50;99.90;;;;;;5013715;28;20448;-70
2022/09/16 00:12:43;;;;;;;5.05;4.30;;;11.50;99.90;;;;;;5009825;28;20048;-71
2022/09/16 00:15:10;;;;;;;5.45;4.85;;;11.50;99.90;;;;;;5015395;28;20041;-70
2022/09/16 00:17:37;;;;;;;5.63;5.05;;;11.50;99.90;;;;;;4980702;28;20041;-70
2022/09/16 00:20:07;;;;;;;7.05;5.95;;;11.50;99.90;;;;;;5000397;28;20057;-70
2022/09/16 00:22:34;;;;;;;8.52;5.18;;;11.50;99.90;;;;;;5010438;28;20333;-70
2022/09/16 00:25:01;;;;;;;8.65;4.53;;;11.50;99.90;;;;;;5018464;28;20414;-70
2022/09/16 00:27:28;;;;;;;9.50;5.30;;;11.50;99.90;;;;;;5014774;28;20053;-70
2022/09/16 00:29:54;;;;;;;5.97;5.47;;;11.50;99.90;;;;;;5010898;28;20030;-70
2022/09/16 00:32:22;;;;;;;6.82;5.22;;;11.50;99.90;;;;;;5011264;28;20076;-70
2022/09/16 00:34:50;;;;;;;7.68;5.07;;;11.50;99.90;;;;;;4998092;28;20042;-70
2022/09/16 00:37:16;;;;;;;8.07;4.68;;;11.50;99.90;;;;;;4994107;28;20060;-71
2022/09/16 00:39:43;;;;;;;9.95;6.05;;;11.50;99.90;;;;;;4998102;28;20060;-71
2022/09/16 00:42:11;;;;;;;8.52;5.43;;;11.40;99.90;;;;;;5000278;28;20156;-71
2022/09/16 00:45:05;;;;;;;12.52;5.80;;;11.40;99.90;;;;;;4989788;28;20045;-71
2022/09/16 00:47:43;;;;;;;8.30;5.68;;;11.40;99.90;;;;;;4991786;28;20140;-72
2022/09/16 00:50:40;;;;;;;9.98;5.97;;;11.40;99.90;;;;;;5023751;28;20048;-73
2022/09/16 00:53:11;;;;;;;8.10;5.30;;;11.30;99.90;;;;;;5006760;28;20511;-73
2022/09/16 00:55:38;;;;;;;8.50;4.80;;;11.40;99.90;;;;;;4988225;28;20041;-73
2022/09/16 00:58:25;;;;;;;11.15;4.70;;;11.40;99.90;;;;;;5013096;28;20419;-73
2022/09/16 01:00:52;;;;;;;11.80;4.75;;;11.40;99.90;;;;;;4992356;28;20041;-73
2022/09/16 01:03:20;;;;;;;7.43;5.50;;;11.40;99.90;;;;;;4993949;28;20045;-72
2022/09/16 01:05:47;;;;;;;10.63;5.05;;;11.30;99.90;;;;;;4993372;28;20041;-73
2022/09/16 01:08:14;;;;;;;10.23;5.82;;;11.30;99.90;;;;;;4996214;28;20072;-72
2022/09/16 01:10:42;;;;;;;10.13;5.00;;;11.40;99.90;;;;;;5013218;28;20079;-73
2022/09/16 01:13:11;;;;;;;11.00;5.47;;;11.30;99.90;;;;;;4988510;28;20063;-72
2022/09/16 01:15:57;;;;;;;6.70;4.40;;;11.20;99.90;;;;;;4991156;28;20127;-72
2022/09/16 01:18:59;;;;;;;7.10;4.28;;;11.20;99.90;;;;;;4996510;28;20062;-72
2022/09/16 01:21:58;;;;;;;14.15;4.53;;;11.20;99.90;;;;;;5010970;28;20053;-72
2022/09/16 01:24:40;;;;;;;4.32;3.72;;;11.20;99.90;;;;;;5009875;28;20156;-72
2022/09/16 01:27:24;;;;;;;11.07;4.72;;;11.20;99.90;;;;;;5015927;28;20046;-72
2022/09/16 01:30:18;;;;;;;6.63;5.07;;;11.20;99.90;;;;;;4990917;28;20042;-72
2022/09/16 01:32:51;;;;;;;9.25;5.45;;;11.20;99.90;;;;;;4993906;28;20050;-73
2022/09/16 01:35:51;;;;;;;9.30;4.80;;;11.10;99.90;;;;;;4996120;28;20419;-72
2022/09/16 01:38:20;;;;;;;9.27;5.22;;;11.20;99.90;;;;;;4993377;22;20057;-71
2022/09/16 01:41:06;;;;;;;6.30;4.70;;;11.10;99.90;;;;;;4991995;28;20037;-71
2022/09/16 01:44:00;;;;;;;8.80;4.78;;;11.10;99.90;;;;;;4976908;28;20050;-71
2022/09/16 01:46:42;;;;;;;6.78;3.90;;;11.10;99.90;;;;;;4984039;28;20046;-70
2022/09/16 01:49:21;;;;;;;9.05;4.80;;;11.10;99.90;;;;;;5008223;28;20230;-70
2022/09/16 01:52:08;;;;;;;9.38;5.05;;;11.10;99.90;;;;;;5012083;28;20034;-70
2022/09/16 01:55:03;;;;;;;7.00;4.45;;;11.20;99.90;;;;;;4988830;28;20485;-70
2022/09/16 01:57:45;;;;;;;8.02;4.53;;;11.10;99.90;;;;;;5006340;28;20046;-70
2022/09/16 02:00:13;;;;;;;6.60;4.90;;;11.10;99.90;;;;;;5002859;28;20054;-70
2022/09/16 02:02:58;;;;;;;6.53;4.35;;;11.10;99.90;;;;;;4992048;28;20041;-70
2022/09/16 02:05:40;;;;;;;11.35;5.90;;;11.10;99.90;;;;;;4993431;28;20049;-70
2022/09/16 02:08:20;;;;;;;10.70;5.32;;;11.20;99.90;;;;;;5017058;28;20077;-70
2022/09/16 02:10:54;;;;;;;9.35;5.15;;;11.10;99.90;;;;;;5012957;28;20038;-70
2022/09/16 02:13:31;;;;;;;13.02;6.32;;;11.10;99.90;;;;;;5013875;28;20038;-70
2022/09/16 02:16:07;;;;;;;11.93;6.15;;;11.20;99.90;;;;;;5013599;28;20037;-70
2022/09/16 02:18:38;;;;;;;11.88;7.20;;;11.20;99.90;;;;;;5014230;28;20103;-70
2022/09/16 02:21:08;;;;;;;9.95;7.90;;;11.10;99.90;;;;;;5013432;28;20140;-70
2022/09/16 02:23:40;;;;;;;11.32;7.32;;;11.20;99.90;;;;;;4992138;28;20050;-69
2022/09/16 02:26:11;;;;;;;14.20;9.77;;;11.20;99.90;;;;;;4964433;28;20048;-70
2022/09/16 02:28:42;;;;;;;14.95;9.02;;;11.20;99.90;;;;;;5010227;28;20340;-70
2022/09/16 02:31:12;;;;;;;19.70;9.82;;;11.10;99.90;;;;;;4996572;28;20052;-70
2022/09/16 02:33:44;;;;;;;21.38;11.98;;;11.10;99.90;;;;;;5010320;28;20045;-71
2022/09/16 02:36:17;;;;;;;15.70;11.68;;;11.10;99.90;;;;;;5013098;28;20052;-70
2022/09/16 02:38:48;;;;;;;19.73;13.27;;;11.10;99.90;;;;;;5012941;28;20468;-71
2022/09/16 02:41:15;;;;;;;16.23;11.98;;;11.10;99.90;;;;;;5014156;28;20076;-70
2022/09/16 02:43:42;;;;;;;20.77;13.10;;;11.10;99.90;;;;;;4996517;28;20080;-70
2022/09/16 02:46:20;;;;;;;25.25;13.10;;;11.10;99.90;;;;;;5011231;28;20042;-71
2022/09/16 02:49:04;;;;;;;18.52;12.70;;;11.10;99.90;;;;;;5011674;28;20133;-71
2022/09/16 02:51:53;;;;;;;16.67;12.88;;;11.10;99.90;;;;;;4996365;28;20057;-72
2022/09/16 02:54:34;;;;;;;18.90;12.27;;;11.10;99.90;;;;;;5004509;28;20512;-71
2022/09/16 02:57:02;;;;;;;19.67;11.77;;;11.00;99.90;;;;;;4990041;28;20045;-71
2022/09/16 02:59:29;;;;;;;23.80;14.73;;;11.10;99.90;;;;;;4995159;28;20053;-71
2022/09/16 03:01:57;;;;;;;17.60;13.02;;;11.00;99.90;;;;;;4992764;28;20156;-71
2022/09/16 03:04:24;;;;;;;20.35;12.82;;;11.00;99.90;;;;;;5011815;28;20070;-70
2022/09/16 03:06:51;;;;;;;18.13;14.30;;;11.00;99.90;;;;;;5014081;28;20042;-71
2022/09/16 03:09:17;;;;;;;23.17;14.68;;;11.00;99.90;;;;;;5002425;28;20045;-70
2022/09/16 03:12:21;;;;;;;18.25;12.95;;;11.00;99.90;;;;;;5014917;28;20042;-71
2022/09/16 03:15:22;;;;;;;19.85;12.13;;;11.00;99.90;;;;;;5001944;28;20080;-71
2022/09/16 03:18:21;;;;;;;23.80;13.27;;;11.00;99.90;;;;;;4997637;28;20049;-71
2022/09/16 03:21:14;;;;;;;21.92;14.45;;;11.10;99.90;;;;;;5016554;28;20046;-71
2022/09/16 03:23:50;;;;;;;24.90;16.48;;;11.00;99.90;;;;;;5015306;28;20046;-71
2022/09/16 03:26:45;;;;;;;27.30;17.58;;;11.10;99.90;;;;;;5015614;28;20042;-71
2022/09/16 03:29:32;;;;;;;26.73;16.80;;;11.10;99.90;;;;;;4993563;28;20051;-71
2022/09/16 03:32:16;;;;;;;28.98;17.48;;;11.10;99.90;;;;;;5016507;28;20049;-71
2022/09/16 03:34:48;;;;;;;21.10;18.80;;;11.10;99.90;;;;;;5013780;28;20048;-71
2022/09/16 03:37:17;;;;;;;25.60;17.80;;;11.10;99.90;;;;;;4998456;28;20673;-71
2022/09/16 03:39:52;;;;;;;32.47;17.98;;;11.10;99.90;;;;;;4998514;28;20053;-71
2022/09/16 03:42:19;;;;;;;30.02;17.70;;;11.00;99.90;;;;;;5018677;28;20048;-71
2022/09/16 03:44:46;;;;;;;24.00;18.23;;;11.00;99.90;;;;;;5015035;28;20053;-71
2022/09/16 03:47:14;;;;;;;20.27;17.75;;;11.00;99.90;;;;;;5016908;28;20049;-71
2022/09/16 03:49:41;;;;;;;21.70;18.67;;;11.00;99.90;;;;;;4993366;28;20465;-71
2022/09/16 03:52:08;;;;;;;27.67;20.17;;;11.00;99.90;;;;;;5017965;28;20046;-71
2022/09/16 03:54:36;;;;;;;31.60;18.75;;;10.90;99.90;;;;;;4992580;28;20404;-70
2022/09/16 03:57:04;;;;;;;39.47;20.08;;;10.90;99.90;;;;;;4999151;28;20093;-71
2022/09/16 03:59:31;;;;;;;23.35;17.13;;;10.80;99.90;;;;;;5015415;28;20056;-71
2022/09/16 04:01:58;;;;;;;21.55;17.35;;;10.90;99.90;;;;;;4999917;28;20063;-70
2022/09/16 04:04:25;;;;;;;21.33;14.63;;;10.70;99.90;;;;;;5016715;28;20053;-71
2022/09/16 04:06:51;;;;;;;22.60;14.93;;;10.80;99.90;;;;;;4999947;28;20056;-71
2022/09/16 04:09:18;;;;;;;20.65;14.68;;;10.80;99.90;;;;;;5019527;28;20435;-71
2022/09/16 04:11:45;;;;;;;17.63;14.23;;;10.70;99.90;;;;;;5012107;28;20030;-71
2022/09/16 04:14:11;;;;;;;19.70;13.07;;;10.70;99.90;;;;;;4997956;28;20423;-71
2022/09/16 04:16:38;;;;;;;22.25;14.68;;;10.70;99.90;;;;;;4999145;28;20528;-71
2022/09/16 04:19:12;;;;;;;21.75;13.80;;;10.70;99.90;;;;;;5020044;28;20418;-71
2022/09/16 04:21:40;;;;;;;16.10;12.80;;;10.80;99.90;;;;;;5013664;28;20037;-71
2022/09/16 04:24:07;;;;;;;16.75;13.20;;;10.70;99.90;;;;;;5019889;28;20053;-70
2022/09/16 04:26:39;;;;;;;20.48;13.13;;;10.70;99.90;;;;;;5013832;28;20034;-70
2022/09/16 04:29:06;;;;;;;21.08;14.85;;;10.70;99.90;;;;;;5013764;28;20037;-70
2022/09/16 04:31:32;;;;;;;22.50;14.43;;;10.70;99.90;;;;;;4996382;28;20045;-71
2022/09/16 04:34:01;;;;;;;19.08;13.45;;;10.70;99.90;;;;;;5002612;28;20136;-70
2022/09/16 04:36:27;;;;;;;17.02;14.02;;;10.70;99.90;;;;;;5019074;28;20122;-71
2022/09/16 04:38:54;;;;;;;22.67;13.82;;;10.70;99.90;;;;;;4994928;28;20572;-71
2022/09/16 04:41:23;;;;;;;19.45;13.65;;;10.70;99.90;;;;;;5013567;28;20459;-71
2022/09/16 04:43:55;;;;;;;21.25;14.05;;;10.70;99.90;;;;;;4997849;28;20055;-71
2022/09/16 04:46:23;;;;;;;17.77;14.35;;;10.70;99.90;;;;;;5016933;28;20450;-72
2022/09/16 04:48:51;;;;;;;17.58;14.23;;;10.70;99.90;;;;;;4997266;28;20471;-71
2022/09/16 04:51:19;;;;;;;22.13;14.48;;;10.70;99.90;;;;;;5017122;28;20033;-72
2022/09/16 04:53:46;;;;;;;22.35;12.90;;;10.80;99.90;;;;;;5016656;28;20404;-70
2022/09/16 04:56:18;;;;;;;23.80;15.90;;;10.80;99.90;;;;;;5017651;28;20184;-71
2022/09/16 04:58:47;;;;;;;23.45;13.13;;;10.80;99.90;;;;;;4997663;28;20737;-71
2022/09/16 05:01:16;;;;;;;24.33;12.70;;;10.80;99.90;;;;;;4996498;28;20667;-71
2022/09/16 05:03:49;;;;;;;26.65;14.85;;;10.70;99.90;;;;;;4998377;28;20650;-71
2022/09/16 05:06:22;;;;;;;24.92;14.90;;;10.70;99.90;;;;;;5013962;28;20557;-70
2022/09/16 05:08:49;;;;;;;26.75;15.25;;;10.70;99.90;;;;;;4998591;28;20427;-71
2022/09/16 05:11:19;;;;;;;16.52;12.30;;;10.70;99.90;;;;;;4997769;28;20050;-70
2022/09/16 05:13:46;;;;;;;21.67;14.60;;;10.70;99.90;;;;;;5013025;28;21080;-70
2022/09/16 05:16:15;;;;;;;24.65;14.82;;;10.70;99.90;;;;;;4994355;28;20116;-70
2022/09/16 05:18:45;;;;;;;24.13;16.45;;;10.70;99.90;;;;;;5014810;28;20042;-70
2022/09/16 05:21:14;;;;;;;24.50;16.50;;;10.70;99.90;;;;;;4998707;28;20038;-70
2022/09/16 05:23:42;;;;;;;25.98;18.45;;;10.70;99.90;;;;;;5011059;28;20500;-70
2022/09/16 05:26:16;;;;;;;23.67;20.35;;;10.70;99.90;;;;;;5016047;28;20096;-72
2022/09/16 05:28:43;;;;;;;34.83;24.15;;;10.70;99.90;;;;;;5014430;28;20045;-72
2022/09/16 05:31:24;;;;;;;35.00;25.02;;;10.70;99.90;;;;;;4987624;28;20042;-70
2022/09/16 05:34:18;;;;;;;38.72;26.55;;;10.70;99.90;;;;;;5009956;28;20609;-70
2022/09/16 05:36:46;;;;;;;47.30;28.05;;;10.70;99.90;;;;;;4997359;28;20049;-71
2022/09/16 05:39:16;;;;;;;34.70;24.48;;;10.70;99.90;;;;;;5018258;28;20526;-71
2022/09/16 05:41:56;;;;;;;29.60;24.20;;;10.70;99.90;;;;;;5008067;28;20091;-70
2022/09/16 05:44:24;;;;;;;37.33;25.27;;;10.80;99.90;;;;;;4990388;28;20412;-70
2022/09/16 05:46:51;;;;;;;38.20;24.55;;;10.70;99.90;;;;;;4995855;28;20042;-70
2022/09/16 05:49:19;;;;;;;28.17;23.33;;;10.80;99.90;;;;;;5016063;28;20049;-70
2022/09/16 05:51:47;;;;;;;32.28;23.48;;;10.70;99.90;;;;;;4991879;28;20133;-70
2022/09/16 05:54:14;;;;;;;36.38;26.00;;;10.80;99.90;;;;;;5016225;28;20068;-70
2022/09/16 05:56:41;;;;;;;31.00;22.15;;;10.90;99.90;;;;;;5011137;28;20052;-70
2022/09/16 05:59:11;;;;;;;36.67;23.00;;;10.90;99.90;;;;;;4999205;28;20041;-70
2022/09/16 06:01:37;;;;;;;31.17;20.85;;;10.80;99.90;;;;;;5006313;28;20045;-70
2022/09/16 06:04:06;;;;;;;31.63;25.02;;;10.90;99.90;;;;;;4998750;28;20137;-70
2022/09/16 06:06:44;;;;;;;29.20;22.77;;;10.90;99.90;;;;;;5013539;28;20519;-70
2022/09/16 06:09:17;;;;;;;33.03;24.55;;;10.90;99.90;;;;;;5007015;28;20041;-70
2022/09/16 06:11:46;;;;;;;27.88;24.35;;;10.90;99.90;;;;;;4992493;28;21215;-70
2022/09/16 06:14:14;;;;;;;36.35;24.58;;;10.90;99.90;;;;;;4992907;28;20140;-71
2022/09/16 06:16:41;;;;;;;33.63;23.63;;;10.90;99.90;;;;;;4996007;28;20728;-70
2022/09/16 06:19:12;;;;;;;30.45;24.10;;;10.90;99.90;;;;;;5012734;28;20128;-70
2022/09/16 06:21:40;;;;;;;33.08;25.95;;;10.90;99.90;;;;;;4991830;28;20396;-70
2022/09/16 06:24:07;;;;;;;34.03;28.20;;;11.00;99.90;;;;;;5005770;28;20056;-70
2022/09/16 06:26:39;;;;;;;30.60;25.08;;;10.90;99.90;;;;;;5012476;28;20057;-70
2022/09/16 06:29:11;;;;;;;31.83;24.52;;;10.90;99.90;;;;;;5005176;28;20045;-70
2022/09/16 06:31:38;;;;;;;34.00;23.02;;;10.90;99.90;;;;;;5010065;28;20033;-70
2022/09/16 06:34:06;;;;;;;27.17;19.95;;;10.90;99.90;;;;;;4999664;28;20052;-70
2022/09/16 06:36:36;;;;;;;24.55;20.83;;;10.80;99.90;;;;;;4995274;28;20044;-70
2022/09/16 06:39:10;;;;;;;23.10;17.58;;;10.90;99.90;;;;;;5001796;28;20053;-70
2022/09/16 06:41:37;;;;;;;24.02;17.05;;;10.90;99.90;;;;;;5009332;28;20037;-73
2022/09/16 06:44:04;;;;;;;28.08;16.70;;;10.90;99.90;;;;;;5015556;28;20133;-72
2022/09/16 06:46:30;;;;;;;19.58;14.60;;;10.90;99.90;;;;;;5014142;28;20214;-72
2022/09/16 06:48:57;;;;;;;21.30;15.30;;;10.90;99.90;;;;;;5013806;28;20080;-73
2022/09/16 06:51:31;;;;;;;19.90;14.35;;;11.00;99.90;;;;;;5013877;28;20069;-72
2022/09/16 06:54:05;;;;;;;17.55;14.43;;;11.00;99.90;;;;;;5013846;28;20064;-72
2022/09/16 06:56:34;;;;;;;22.02;15.85;;;11.10;99.90;;;;;;4997863;28;20056;-72
2022/09/16 06:59:02;;;;;;;21.75;14.05;;;11.10;99.90;;;;;;5008361;28;20049;-72
2022/09/16 07:01:30;;;;;;;17.13;12.32;;;11.20;99.90;;;;;;5003559;28;20081;-72
2022/09/16 07:04:00;;;;;;;12.38;10.98;;;11.20;99.90;;;;;;5013171;28;20156;-72
2022/09/16 07:06:28;;;;;;;16.55;10.85;;;11.10;99.90;;;;;;5014154;28;20041;-72
2022/09/16 07:09:15;;;;;;;14.60;10.88;;;11.00;99.90;;;;;;4997558;28;20042;-72
2022/09/16 07:11:42;;;;;;;12.02;10.07;;;11.00;99.90;;;;;;4993212;28;20037;-72
2022/09/16 07:14:09;;;;;;;14.70;11.50;;;11.00;99.90;;;;;;5015306;28;20335;-72
2022/09/16 07:16:36;;;;;;;18.77;10.95;;;11.00;99.90;;;;;;5010807;28;20851;-71
2022/09/16 07:19:03;;;;;;;13.85;10.43;;;11.10;99.90;;;;;;5016931;28;20080;-72
2022/09/16 07:21:30;;;;;;;12.50;10.57;;;11.10;99.90;;;;;;5012669;28;20050;-72
2022/09/16 07:23:59;;;;;;;10.65;9.48;;;11.10;99.90;;;;;;4992022;28;20661;-71
2022/09/16 07:26:28;;;;;;;13.40;10.07;;;11.10;99.90;;;;;;4996476;28;20536;-71
2022/09/16 07:28:58;;;;;;;17.05;10.40;;;11.20;99.90;;;;;;4996141;28;20583;-75
2022/09/16 07:31:27;;;;;;;15.90;10.65;;;11.20;99.90;;;;;;5003801;28;20052;-75
2022/09/16 07:33:56;;;;;;;12.25;10.38;;;11.20;99.90;;;;;;5015217;28;20050;-75
2022/09/16 07:36:32;;;;;;;;;;;11.30;99.90;;;;;;4998512;28;20134;-73
2022/09/16 07:38:59;;;;;;;14.77;10.90;;;11.50;99.90;;;;;;5047827;22;19921;-71
2022/09/16 07:41:28;;;;;;;15.50;12.00;;;11.60;99.90;;;;;;5011366;28;20048;-71
2022/09/16 07:43:58;;;;;;;13.07;11.85;;;11.60;99.90;;;;;;4980778;28;20617;-69
2022/09/16 07:46:27;;;;;;;12.75;11.52;;;11.70;99.90;;;;;;5015297;28;20052;-69
2022/09/16 07:48:54;;;;;;;15.20;11.68;;;11.70;99.90;;;;;;5005026;28;20042;-70
2022/09/16 07:51:23;;;;;;;14.15;12.25;;;11.60;99.90;;;;;;4995171;28;20041;-70
2022/09/16 07:53:59;;;;;;;12.77;11.63;;;11.60;99.90;;;;;;5002862;28;20128;-69
2022/09/16 07:56:28;;;;;;;12.80;11.80;;;11.60;99.90;;;;;;5007125;28;20046;-69
2022/09/16 07:58:56;;;;;;;12.50;11.40;;;11.70;99.90;;;;;;4987263;28;20037;-70
2022/09/16 08:01:23;;;;;;;14.98;11.48;;;11.70;99.90;;;;;;5002046;28;20472;-70
2022/09/16 08:03:50;;;;;;;12.75;11.45;;;11.90;99.90;;;;;;4979421;28;20049;-69
2022/09/16 08:06:23;;;;;;;13.07;11.95;;;11.80;99.90;;;;;;4970511;28;20045;-71
2022/09/16 08:08:52;;;;;;;13.82;12.57;;;11.80;99.90;;;;;;4985309;28;20038;-70
2022/09/16 08:11:19;;;;;;;13.13;12.10;;;11.70;99.90;;;;;;4982498;28;20100;-70
2022/09/16 08:13:46;;;;;;;13.63;12.43;;;11.70;99.90;;;;;;4984298;28;20042;-71
2022/09/16 08:16:16;;;;;;;12.73;11.93;;;11.80;99.90;;;;;;4987911;28;20042;-70
2022/09/16 08:18:44;;;;;;;14.55;12.80;;;11.80;99.90;;;;;;4997627;28;20041;-70
2022/09/16 08:21:14;;;;;;;16.00;14.30;;;11.80;99.90;;;;;;4993308;28;20049;-71
2022/09/16 08:23:41;;;;;;;15.77;13.95;;;11.80;99.90;;;;;;4999904;28;20038;-70
2022/09/16 08:26:09;;;;;;;14.85;13.40;;;11.90;99.90;;;;;;5003091;28;20072;-70
2022/09/16 08:28:38;;;;;;;14.15;12.80;;;11.90;99.90;;;;;;4999036;28;20052;-70
2022/09/16 08:31:23;;;;;;;13.95;12.85;;;12.00;99.90;;;;;;4998506;28;20042;-71
2022/09/16 08:33:50;;;;;;;14.73;13.70;;;12.00;99.90;;;;;;4997638;28;20044;-71
2022/09/16 08:36:19;;;;;;;15.07;13.93;;;12.00;99.90;;;;;;5005626;28;20456;-70
2022/09/16 08:38:48;;;;;;;14.07;12.75;;;12.00;99.90;;;;;;5000035;28;20315;-71
2022/09/16 08:41:30;;;;;;;13.95;12.75;;;11.90;99.90;;;;;;4965031;28;20201;-71
2022/09/16 08:44:05;;;;;;;14.18;12.93;;;11.90;99.90;;;;;;4999293;28;20408;-70
2022/09/16 08:46:41;;;;;;;14.02;12.77;;;12.00;99.90;;;;;;5001641;28;20080;-70
2022/09/16 08:49:28;;;;;;;15.15;13.40;;;11.80;99.90;;;;;;5003175;28;20092;-70
2022/09/16 08:51:57;;;;;;;14.80;14.00;;;11.80;99.90;;;;;;4982597;28;20415;-70
2022/09/16 08:54:34;;;;;;;16.60;15.20;;;12.20;99.90;;;;;;4982680;28;20041;-70
2022/09/16 08:57:04;;;;;;;17.33;15.98;;;12.70;99.90;;;;;;4982533;28;20152;-71
2022/09/16 08:59:42;;;;;;;17.00;15.80;;;12.80;99.90;;;;;;5000214;28;20527;-71
2022/09/16 09:02:41;;;;;;;17.35;15.82;;;12.80;99.90;;;;;;4998330;28;20157;-70
2022/09/16 09:05:40;;;;;;;17.25;16.15;;;12.80;99.90;;;;;;4999089;28;20131;-71
2022/09/16 09:08:29;;;;;;;18.65;17.08;;;12.70;99.90;;;;;;4979682;28;20042;-71
2022/09/16 09:11:12;;;;;;;17.77;16.42;;;12.50;99.90;;;;;;4997593;28;20584;-71
2022/09/16 09:13:47;;;;;;;17.73;16.63;;;12.60;99.90;;;;;;4985125;28;20045;-70
2022/09/16 09:16:25;;;;;;;18.92;17.58;;;13.10;99.90;;;;;;4964499;28;20044;-71
2022/09/16 09:18:55;;;;;;;19.63;18.30;;;13.70;99.90;;;;;;4997097;28;20131;-71
2022/09/16 09:22:09;;;;;;;19.15;17.88;;;13.90;99.90;;;;;;4980917;28;20050;-71
2022/09/16 09:25:14;;;;;;;20.15;18.75;;;14.30;99.90;;;;;;4977059;28;20665;-72
2022/09/16 09:28:16;;;;;;;20.30;18.90;;;14.00;99.90;;;;;;4986490;28;20045;-71
2022/09/16 09:30:54;;;;;;;20.00;18.35;;;14.00;99.90;;;;;;4999819;28;20037;-70
2022/09/16 09:33:32;;;;;;;20.85;19.50;;;14.20;99.90;;;;;;4996978;28;20596;-71
2022/09/16 09:36:32;;;;;;;21.38;19.77;;;14.30;99.90;;;;;;4987148;28;20166;-70
2022/09/16 09:39:17;;;;;;;22.30;20.83;;;14.60;99.90;;;;;;4984372;28;20030;-71
2022/09/16 09:41:54;;;;;;;21.80;20.38;;;14.80;99.90;;;;;;4978686;28;20480;-71
2022/09/16 09:44:23;;;;;;;21.30;19.90;;;15.30;99.90;;;;;;5002342;28;20420;-71
2022/09/16 09:46:55;;;;;;;21.20;19.40;;;15.30;99.90;;;;;;4980363;28;20453;-71
2022/09/16 09:49:36;;;;;;;22.20;20.20;;;14.90;99.90;;;;;;4998366;28;20132;-71
2022/09/16 09:52:35;;;;;;;23.20;20.58;;;14.50;99.90;;;;;;4979490;28;20060;-70
2022/09/16 09:55:14;;;;;;;21.75;20.25;;;14.30;99.90;;;;;;4996258;28;20151;-70
2022/09/16 09:58:04;;;;;;;22.88;21.02;;;14.50;99.90;;;;;;4977034;28;20392;-70
2022/09/16 10:00:30;;;;;;;21.15;19.42;;;14.60;99.90;;;;;;4998835;28;20052;-71
2022/09/16 10:03:05;;;;;;;22.30;20.30;;;14.80;99.90;;;;;;4980307;28;20063;-71
2022/09/16 10:05:32;;;;;;;21.80;19.92;;;15.00;99.90;;;;;;4994997;28;20068;-71
2022/09/16 10:08:05;;;;;;;21.98;20.20;;;15.10;99.90;;;;;;4996890;28;20048;-71
2022/09/16 10:10:34;;;;;;;22.38;20.45;;;15.40;99.90;;;;;;4976965;28;20045;-71
2022/09/16 10:13:11;;;;;;;23.40;21.67;;;15.50;99.90;;;;;;4958865;28;20068;-71
2022/09/16 10:15:39;;;;;;;22.70;20.83;;;15.10;99.90;;;;;;4994888;28;20037;-71
2022/09/16 10:18:21;;;;;;;21.60;19.70;;;15.50;99.90;;;;;;5001643;28;20045;-70
2022/09/16 10:21:03;;;;;;;22.48;20.58;;;15.50;99.90;;;;;;4996030;28;20052;-72
2022/09/16 10:23:30;;;;;;;22.13;20.48;;;15.10;99.90;;;;;;4979473;28;20044;-72
2022/09/16 10:26:25;;;;;;;21.70;20.02;;;15.00;99.90;;;;;;4996975;28;20041;-70
2022/09/16 10:28:58;;;;;;;22.10;20.48;;;14.50;99.90;;;;;;4996927;28;20049;-70
2022/09/16 10:31:33;;;;;;;23.00;21.35;;;14.20;99.90;;;;;;4984299;28;20520;-70
2022/09/16 10:34:03;;;;;;;22.52;20.83;;;14.00;99.90;;;;;;4982817;28;20384;-71
2022/09/16 10:36:34;;;;;;;22.58;21.08;;;14.00;99.90;;;;;;4982835;28;20053;-71
2022/09/16 10:39:02;;;;;;;22.73;20.63;;;14.30;99.90;;;;;;4982886;28;20138;-71
2022/09/16 10:41:40;;;;;;;22.45;20.63;;;14.80;99.90;;;;;;5000201;28;20045;-70
2022/09/16 10:44:32;;;;;;;22.52;20.30;;;15.10;99.90;;;;;;5000998;28;20046;-70
2022/09/16 10:47:06;;;;;;;21.88;20.02;;;15.10;99.90;;;;;;4994162;28;20045;-70
2022/09/16 10:49:37;;;;;;;22.70;20.40;;;14.80;99.90;;;;;;4983011;28;20046;-70
2022/09/16 10:52:25;;;;;;;21.90;19.73;;;14.60;99.90;;;;;;4986277;28;20065;-70
2022/09/16 10:54:53;;;;;;;24.13;21.88;;;14.50;99.90;;;;;;4983651;28;20716;-71
2022/09/16 10:57:19;;;;;;;21.98;19.88;;;14.50;99.90;;;;;;4984311;28;20034;-71
2022/09/16 11:00:10;;;;;;;23.33;21.73;;;14.90;99.90;;;;;;5005030;28;20565;-70
2022/09/16 11:02:49;;;;;;;22.95;21.10;;;15.30;99.90;;;;;;5002544;28;20053;-70
2022/09/16 11:05:33;;;;;;;23.50;21.27;;;15.80;99.90;;;;;;5002475;28;20053;-70
2022/09/16 11:08:20;;;;;;;22.73;20.88;;;16.20;99.90;;;;;;5000023;28;20212;-71
2022/09/16 11:11:14;;;;;;;22.55;20.85;;;16.30;99.90;;;;;;4983590;28;20044;-70
2022/09/16 11:14:08;;;;;;;23.90;21.52;;;16.60;99.90;;;;;;5001814;28;20068;-72
2022/09/16 11:16:52;;;;;;;22.20;20.67;;;16.80;99.90;;;;;;4982883;28;20040;-72
2022/09/16 11:19:24;;;;;;;22.58;21.08;;;16.50;99.90;;;;;;5001897;28;20052;-72
2022/09/16 11:21:57;;;;;;;24.33;22.20;;;16.70;99.90;;;;;;5004063;28;20216;-72
2022/09/16 11:24:38;;;;;;;23.60;21.90;;;16.60;99.90;;;;;;5007471;28;20048;-72
2022/09/16 11:27:28;;;;;;;24.15;22.27;;;16.60;99.90;;;;;;5009097;28;20056;-72
2022/09/16 11:30:09;;;;;;;24.02;22.05;;;17.00;99.90;;;;;;5003960;28;20326;-72
2022/09/16 11:33:22;;;;;;;24.50;22.13;;;17.10;99.90;;;;;;4992426;28;20431;-73
2022/09/16 11:36:14;;;;;;;23.48;21.80;;;17.00;99.90;;;;;;4986483;28;20034;-72
2022/09/16 11:38:53;;;;;;;22.35;20.75;;;17.40;99.90;;;;;;4988635;28;20364;-73
2022/09/16 11:41:47;;;;;;;22.80;21.20;;;17.40;99.90;;;;;;4980763;28;20288;-72
2022/09/16 11:44:26;;;;;;;23.00;21.17;;;17.10;99.90;;;;;;5007858;28;20099;-72
2022/09/16 11:47:09;;;;;;;24.65;22.50;;;17.10;99.90;;;;;;4986424;28;20224;-72
2022/09/16 11:49:54;;;;;;;23.73;21.60;;;16.80;99.90;;;;;;4991377;28;20055;-71
2022/09/16 11:52:52;;;;;;;24.35;22.55;;;17.10;99.90;;;;;;4988109;28;20199;-72
2022/09/16 11:55:44;;;;;;;23.77;21.77;;;17.00;99.90;;;;;;4983829;28;20140;-70
2022/09/16 11:58:38;;;;;;;23.00;21.13;;;17.20;99.90;;;;;;5004505;28;20049;-71
2022/09/16 12:01:27;;;;;;;23.15;20.92;;;17.30;99.90;;;;;;5006114;28;20055;-70
2022/09/16 12:04:34;;;;;;;23.95;22.00;;;16.70;99.90;;;;;;4992339;28;20100;-71
2022/09/16 12:07:17;;;;;;;22.38;20.48;;;16.30;99.90;;;;;;5007248;28;20631;-71
2022/09/16 12:09:53;;;;;;;24.63;22.27;;;16.30;99.90;;;;;;5005683;28;20045;-71
2022/09/16 12:12:27;;;;;;;23.90;21.95;;;16.20;99.90;;;;;;4986183;28;20042;-72
2022/09/16 12:15:02;;;;;;;22.50;20.50;;;16.20;99.90;;;;;;5008302;28;20042;-71
2022/09/16 12:17:35;;;;;;;23.17;21.27;;;16.50;99.90;;;;;;5008884;28;20040;-71
2022/09/16 12:20:23;;;;;;;22.90;20.95;;;16.80;99.90;;;;;;4987804;28;20515;-72
2022/09/16 12:22:59;;;;;;;22.20;20.20;;;16.60;99.90;;;;;;5010562;28;20038;-72
2022/09/16 12:25:48;;;;;;;22.77;20.70;;;16.50;99.90;;;;;;4990470;28;20041;-73
2022/09/16 12:28:30;;;;;;;22.35;20.45;;;16.10;99.90;;;;;;4989784;28;20218;-71
2022/09/16 12:31:11;;;;;;;23.52;21.63;;;16.20;99.90;;;;;;5005583;28;20041;-70
2022/09/16 12:34:02;;;;;;;23.48;21.30;;;16.20;99.90;;;;;;5006010;28;20068;-70
2022/09/16 12:36:33;;;;;;;21.75;20.08;;;15.80;99.90;;;;;;5006055;28;20129;-69
2022/09/16 12:39:00;;;;;;;22.95;21.00;;;15.60;99.90;;;;;;5005490;28;20052;-70
2022/09/16 12:42:17;;;;;;;23.75;21.95;;;15.40;99.90;;;;;;5006125;28;20058;-72
2022/09/16 12:45:14;;;;;;;23.48;21.88;;;15.30;99.90;;;;;;4986012;28;20046;-72
2022/09/16 12:47:53;;;;;;;23.20;21.52;;;15.60;99.90;;;;;;5006956;28;20107;-72
2022/09/16 12:50:45;;;;;;;21.50;19.95;;;16.20;99.90;;;;;;5000493;28;20045;-72
2022/09/16 12:53:37;;;;;;;22.15;20.48;;;16.40;99.90;;;;;;5006155;28;20046;-71
2022/09/16 12:56:21;;;;;;;24.60;22.52;;;16.20;99.90;;;;;;4987160;28;20037;-72
2022/09/16 12:59:20;;;;;;;23.02;20.90;;;16.20;99.90;;;;;;5004165;28;20079;-72
2022/09/16 13:01:51;;;;;;;21.73;20.08;;;16.30;99.90;;;;;;5004131;28;20045;-72
2022/09/16 13:04:30;;;;;;;22.40;20.33;;;16.40;99.90;;;;;;5005853;28;20042;-71
2022/09/16 13:06:58;;;;;;;21.55;20.00;;;16.50;99.90;;;;;;4992203;28;21215;-71
2022/09/16 13:09:46;;;;;;;21.42;19.25;;;16.40;99.90;;;;;;4971144;28;20053;-71
2022/09/16 13:12:25;;;;;;;20.42;19.23;;;15.90;99.90;;;;;;4986316;28;20045;-72